createdAt,value
2023-03-22T00:02:11.100Z,10.89
2023-03-22T00:04:39.069Z,10.98
2023-03-22T00:07:05.684Z,11.00
2023-03-22T00:09:32.218Z,11.10
2023-03-22T00:11:58.685Z,11.14
2023-03-22T00:14:25.486Z,11.16
2023-03-22T00:16:52.164Z,11.03
2023-03-22T00:19:18.850Z,11.03
2023-03-22T00:21:45.303Z,11.10
2023-03-22T00:24:11.879Z,11.13
2023-03-22T00:26:38.416Z,11.16
2023-03-22T00:29:04.952Z,11.22
2023-03-22T00:31:31.551Z,11.15
2023-03-22T00:33:58.618Z,11.07
2023-03-22T00:36:25.105Z,11.11
2023-03-22T00:38:51.933Z,11.21
2023-03-22T00:41:18.425Z,11.20
2023-03-22T00:43:44.865Z,11.29
2023-03-22T00:46:11.385Z,11.01
2023-03-22T00:48:37.833Z,11.09
2023-03-22T00:51:04.424Z,11.12
2023-03-22T00:53:30.960Z,11.13
2023-03-22T00:55:57.530Z,11.12
2023-03-22T01:03:58.894Z,10.82
2023-03-22T01:06:25.633Z,11.01
2023-03-22T01:08:52.214Z,11.09
2023-03-22T01:11:18.652Z,11.04
2023-03-22T01:13:45.228Z,11.09
2023-03-22T01:16:11.763Z,11.11
2023-03-22T01:18:38.258Z,11.08
2023-03-22T01:21:04.695Z,11.06
2023-03-22T01:23:31.251Z,10.97
2023-03-22T01:25:57.686Z,11.02
2023-03-22T01:28:26.893Z,10.90
2023-03-22T01:30:53.682Z,10.90
2023-03-22T01:33:21.263Z,11.03
2023-03-22T01:35:47.760Z,11.07
2023-03-22T01:38:14.274Z,11.10
2023-03-22T01:40:41.602Z,11.01
2023-03-22T01:43:08.951Z,11.00
2023-03-22T01:45:36.047Z,11.02
2023-03-22T01:48:02.607Z,11.04
2023-03-22T01:50:29.130Z,11.04
2023-03-22T01:52:55.824Z,11.05
2023-03-22T01:55:22.280Z,10.99
2023-03-22T01:57:48.936Z,11.01
2023-03-22T02:00:16.088Z,11.03
2023-03-22T02:02:42.721Z,11.05
2023-03-22T02:05:09.226Z,11.05
2023-03-22T02:07:36.605Z,10.92
2023-03-22T02:10:04.800Z,10.97
2023-03-22T02:12:31.230Z,10.95
2023-03-22T02:14:57.651Z,10.89
2023-03-22T02:17:24.371Z,10.99
2023-03-22T02:19:50.800Z,11.17
2023-03-22T02:22:18.184Z,11.15
2023-03-22T02:24:44.815Z,11.07
2023-03-22T02:27:11.332Z,11.10
2023-03-22T02:29:37.759Z,11.08
2023-03-22T02:32:04.317Z,10.81
2023-03-22T02:34:30.756Z,10.83
2023-03-22T02:36:57.336Z,10.74
2023-03-22T02:39:23.779Z,10.71
2023-03-22T02:41:50.305Z,10.81
2023-03-22T02:44:17.787Z,10.83
2023-03-22T02:46:44.636Z,10.83
2023-03-22T02:49:11.057Z,10.86
2023-03-22T02:51:37.793Z,10.86
2023-03-22T02:54:04.393Z,10.84
2023-03-22T02:56:31.384Z,10.84
2023-03-22T02:58:58.200Z,10.87
2023-03-22T03:01:24.708Z,10.86
2023-03-22T03:03:51.963Z,10.87
2023-03-22T03:06:18.457Z,10.87
2023-03-22T03:08:45.891Z,10.80
2023-03-22T03:11:12.547Z,10.83
2023-03-22T03:13:39.040Z,10.86
2023-03-22T03:16:05.625Z,10.89
2023-03-22T03:18:32.096Z,10.92
2023-03-22T03:20:58.524Z,10.81
2023-03-22T03:23:24.973Z,10.83
2023-03-22T03:25:51.758Z,10.93
2023-03-22T03:28:19.313Z,11.13
2023-03-22T03:30:45.965Z,11.09
2023-03-22T03:33:13.050Z,11.21
2023-03-22T03:35:39.733Z,11.12
2023-03-22T03:38:06.401Z,11.03
2023-03-22T03:40:32.809Z,11.15
2023-03-22T03:42:59.302Z,11.20
2023-03-22T03:45:25.980Z,11.17
2023-03-22T03:47:52.534Z,11.20
2023-03-22T03:50:19.420Z,11.15
2023-03-22T03:52:46.097Z,11.19
2023-03-22T03:55:12.969Z,11.11
2023-03-22T03:57:39.859Z,11.10
2023-03-22T04:00:06.514Z,11.15
2023-03-22T04:02:32.973Z,10.84
2023-03-22T04:04:59.660Z,11.13
2023-03-22T04:07:26.547Z,11.13
2023-03-22T04:09:53.196Z,11.11
2023-03-22T04:12:20.237Z,11.02
2023-03-22T04:14:46.916Z,11.06
2023-03-22T04:17:13.434Z,11.07
2023-03-22T04:19:41.256Z,11.00
2023-03-22T04:22:08.145Z,10.99
2023-03-22T04:24:35.402Z,11.02
2023-03-22T04:27:02.044Z,11.09
2023-03-22T04:29:29.026Z,11.12
2023-03-22T04:31:56.103Z,11.12
2023-03-22T04:34:22.544Z,11.03
2023-03-22T04:36:49.167Z,10.51
2023-03-22T04:39:15.700Z,10.87
2023-03-22T04:41:42.286Z,10.75
2023-03-22T04:44:08.684Z,10.82
2023-03-22T04:46:35.628Z,10.81
2023-03-22T04:49:02.057Z,11.07
2023-03-22T04:51:28.706Z,10.84
2023-03-22T04:53:55.098Z,10.98
2023-03-22T04:56:21.856Z,11.02
2023-03-22T04:58:48.637Z,11.09
2023-03-22T05:01:18.221Z,10.64
2023-03-22T05:03:44.786Z,10.50
2023-03-22T05:06:11.529Z,10.65
2023-03-22T05:08:38.801Z,10.67
2023-03-22T05:11:05.431Z,10.92
2023-03-22T05:13:31.870Z,10.92
2023-03-22T05:15:58.743Z,10.37
2023-03-22T05:18:25.259Z,10.51
2023-03-22T05:20:51.772Z,10.54
2023-03-22T05:23:18.197Z,10.61
2023-03-22T05:25:44.730Z,10.62
2023-03-22T05:28:11.283Z,10.72
2023-03-22T05:30:38.095Z,10.78
2023-03-22T05:33:04.782Z,10.79
2023-03-22T05:35:31.442Z,10.84
2023-03-22T05:37:57.923Z,10.90
2023-03-22T05:40:24.520Z,10.95
2023-03-22T05:42:50.996Z,10.98
2023-03-22T05:45:17.463Z,10.95
2023-03-22T05:47:44.354Z,10.99
2023-03-22T05:50:10.851Z,10.96
2023-03-22T05:52:37.300Z,11.07
2023-03-22T05:55:03.741Z,11.07
2023-03-22T05:57:30.237Z,11.05
2023-03-22T05:59:56.776Z,11.13
2023-03-22T06:02:23.478Z,11.11
2023-03-22T06:04:50.349Z,11.56
2023-03-22T06:07:16.977Z,11.90
2023-03-22T06:09:43.551Z,12.11
2023-03-22T06:12:10.126Z,12.32
2023-03-22T06:14:37.128Z,12.19
2023-03-22T06:17:03.963Z,12.05
2023-03-22T06:19:30.438Z,11.95
2023-03-22T06:21:56.994Z,11.93
2023-03-22T06:24:23.446Z,11.86
2023-03-22T06:26:49.989Z,11.84
2023-03-22T06:29:16.436Z,11.77
2023-03-22T06:31:43.075Z,11.76
2023-03-22T06:34:10.295Z,11.71
2023-03-22T06:36:36.687Z,11.66
2023-03-22T06:39:03.234Z,11.70
2023-03-22T06:41:30.055Z,11.58
2023-03-22T06:43:56.698Z,11.74
2023-03-22T06:46:23.452Z,11.67
2023-03-22T06:48:49.995Z,11.65
2023-03-22T06:51:16.571Z,11.67
2023-03-22T06:53:43.399Z,11.74
2023-03-22T06:56:09.831Z,11.71
2023-03-22T06:58:36.815Z,11.85
2023-03-22T07:01:03.582Z,11.81
2023-03-22T07:03:30.240Z,11.76
2023-03-22T07:05:56.817Z,11.67
2023-03-22T07:08:23.239Z,11.57
2023-03-22T07:10:49.672Z,11.55
2023-03-22T07:13:16.104Z,11.46
2023-03-22T07:15:43.299Z,11.50
2023-03-22T07:18:09.931Z,11.35
2023-03-22T07:20:37.239Z,11.47
2023-03-22T07:23:04.158Z,11.57
2023-03-22T07:25:30.679Z,11.99
2023-03-22T07:27:58.134Z,12.17
2023-03-22T07:30:24.629Z,12.18
2023-03-22T07:32:51.581Z,12.26
2023-03-22T07:35:18.070Z,12.47
2023-03-22T07:37:44.785Z,12.53
2023-03-22T07:40:11.461Z,12.69
2023-03-22T07:42:38.671Z,13.00
2023-03-22T07:45:06.325Z,13.20
2023-03-22T07:47:40.917Z,13.21
2023-03-22T07:50:08.936Z,13.30
2023-03-22T07:52:35.362Z,13.28
2023-03-22T07:55:01.803Z,13.34
2023-03-22T07:57:28.365Z,13.18
2023-03-22T07:59:55.140Z,12.93
2023-03-22T08:02:22.014Z,13.02
2023-03-22T08:04:51.845Z,13.31
2023-03-22T08:07:19.069Z,13.15
2023-03-22T08:09:45.627Z,13.14
2023-03-22T08:12:12.561Z,13.08
2023-03-22T08:14:41.565Z,13.05
2023-03-22T08:17:08.018Z,12.94
2023-03-22T08:19:34.522Z,13.05
2023-03-22T08:22:00.983Z,13.26
2023-03-22T08:24:27.719Z,13.41
2023-03-22T08:26:54.509Z,13.58
2023-03-22T08:29:21.465Z,13.56
2023-03-22T08:31:47.945Z,13.66
2023-03-22T08:34:14.544Z,13.70
2023-03-22T08:36:40.996Z,13.73
2023-03-22T08:39:07.438Z,13.80
2023-03-22T08:41:33.964Z,13.90
2023-03-22T08:44:00.398Z,13.58
2023-03-22T08:46:27.202Z,13.79
2023-03-22T08:48:53.834Z,13.87
2023-03-22T08:51:21.339Z,13.95
2023-03-22T08:53:47.824Z,13.75
2023-03-22T08:56:14.300Z,13.95
2023-03-22T08:58:40.792Z,14.14
2023-03-22T09:01:07.912Z,14.04
2023-03-22T09:03:34.561Z,14.01
2023-03-22T09:06:01.019Z,14.06
2023-03-22T09:08:27.766Z,14.17
2023-03-22T09:10:54.688Z,14.13
2023-03-22T09:13:21.132Z,14.11
2023-03-22T09:15:48.348Z,14.29
2023-03-22T09:18:14.785Z,14.34
2023-03-22T09:20:41.712Z,14.53
2023-03-22T09:23:08.368Z,14.26
2023-03-22T09:25:35.553Z,14.20
2023-03-22T09:28:02.014Z,14.36
2023-03-22T09:30:28.667Z,14.21
2023-03-22T09:32:55.325Z,14.32
2023-03-22T09:35:22.309Z,14.53
2023-03-22T09:37:51.582Z,14.59
2023-03-22T09:40:17.968Z,14.32
2023-03-22T09:42:46.952Z,14.45
2023-03-22T09:45:13.380Z,14.58
2023-03-22T09:47:44.830Z,14.52
2023-03-22T09:50:11.893Z,14.52
2023-03-22T09:52:38.756Z,14.52
2023-03-22T09:55:05.283Z,14.54
2023-03-22T09:57:31.742Z,14.62
2023-03-22T09:59:58.403Z,14.63
2023-03-22T10:02:25.029Z,14.52
2023-03-22T10:04:51.499Z,14.68
2023-03-22T10:07:18.224Z,14.68
2023-03-22T10:09:45.803Z,14.65
2023-03-22T10:12:13.370Z,14.81
2023-03-22T10:14:39.817Z,14.81
2023-03-22T10:17:06.464Z,14.91
2023-03-22T10:19:32.880Z,15.00
2023-03-22T10:21:59.446Z,15.10
2023-03-22T10:24:25.931Z,14.81
2023-03-22T10:26:52.381Z,14.97
2023-03-22T10:29:18.957Z,14.93
2023-03-22T10:31:45.743Z,14.77
2023-03-22T10:34:12.461Z,14.83
2023-03-22T10:36:39.452Z,14.86
2023-03-22T10:39:05.947Z,14.88
2023-03-22T10:41:34.798Z,15.02
2023-03-22T10:44:01.720Z,15.04
2023-03-22T10:46:28.234Z,15.13
2023-03-22T10:48:55.920Z,15.03
2023-03-22T10:51:22.950Z,15.27
2023-03-22T10:53:49.478Z,15.41
2023-03-22T10:56:15.926Z,15.29
2023-03-22T10:58:42.908Z,15.33
2023-03-22T11:01:09.457Z,15.39
2023-03-22T11:03:36.444Z,15.24
2023-03-22T11:06:03.016Z,15.29
2023-03-22T11:08:30.436Z,15.57
2023-03-22T11:10:58.783Z,15.50
2023-03-22T11:13:25.340Z,15.50
2023-03-22T11:15:52.035Z,15.56
2023-03-22T11:18:18.541Z,15.60
2023-03-22T11:20:45.394Z,15.73
2023-03-22T11:23:12.201Z,15.85
2023-03-22T11:25:38.703Z,15.88
2023-03-22T11:28:07.488Z,15.78
2023-03-22T11:30:34.284Z,15.73
2023-03-22T11:33:02.645Z,15.69
2023-03-22T11:35:29.173Z,15.82
2023-03-22T11:37:55.566Z,15.78
2023-03-22T11:40:23.057Z,15.99
2023-03-22T11:42:50.422Z,15.96
2023-03-22T11:45:16.848Z,15.90
2023-03-22T11:47:43.391Z,15.90
2023-03-22T11:50:10.726Z,16.08
2023-03-22T11:52:37.299Z,15.90
2023-03-22T11:55:03.706Z,15.92
2023-03-22T11:57:30.160Z,15.79
2023-03-22T11:59:58.972Z,15.85
2023-03-22T12:02:25.533Z,15.96
2023-03-22T12:04:52.111Z,16.13
2023-03-22T12:07:18.596Z,16.19
2023-03-22T12:09:45.315Z,16.26
2023-03-22T12:12:12.046Z,16.31
2023-03-22T12:14:38.547Z,15.97
2023-03-22T12:17:05.080Z,16.10
2023-03-22T12:19:31.556Z,16.28
2023-03-22T12:21:58.441Z,16.38
2023-03-22T12:24:25.140Z,16.45
2023-03-22T12:26:51.976Z,16.45
2023-03-22T12:29:20.462Z,16.59
2023-03-22T12:31:47.132Z,16.79
2023-03-22T12:34:13.767Z,16.67
2023-03-22T12:36:40.175Z,16.45
2023-03-22T12:39:07.264Z,16.35
2023-03-22T12:41:33.815Z,16.53
2023-03-22T12:44:00.383Z,16.64
2023-03-22T12:46:26.852Z,16.78
2023-03-22T12:48:55.970Z,16.74
2023-03-22T12:51:22.413Z,16.80
2023-03-22T12:53:48.976Z,16.76
2023-03-22T12:56:15.570Z,16.66
2023-03-22T12:58:43.813Z,16.73
2023-03-22T13:01:11.974Z,16.80
2023-03-22T13:03:39.401Z,17.02
2023-03-22T13:06:06.287Z,17.06
2023-03-22T13:08:32.705Z,17.17
2023-03-22T13:10:59.122Z,17.23
2023-03-22T13:13:26.042Z,17.01
2023-03-22T13:15:52.496Z,16.99
2023-03-22T13:18:19.078Z,17.21
2023-03-22T13:20:45.496Z,17.34
2023-03-22T13:23:12.079Z,17.39
2023-03-22T13:25:41.963Z,17.45
2023-03-22T13:28:09.923Z,17.46
2023-03-22T13:30:36.809Z,17.45
2023-03-22T13:33:03.818Z,17.39
2023-03-22T13:35:30.366Z,17.36
2023-03-22T13:37:57.379Z,17.44
2023-03-22T13:40:23.817Z,17.46
2023-03-22T13:42:50.264Z,17.60
2023-03-22T13:45:16.679Z,17.57
2023-03-22T13:47:43.580Z,17.39
2023-03-22T13:50:13.542Z,17.47
2023-03-22T13:52:40.289Z,17.46
2023-03-22T13:55:06.719Z,17.30
2023-03-22T13:57:33.580Z,17.35
2023-03-22T14:00:11.144Z,17.39
2023-03-22T14:02:39.513Z,17.18
2023-03-22T14:05:05.974Z,17.36
2023-03-22T14:07:32.415Z,17.47
2023-03-22T14:09:59.260Z,17.55
2023-03-22T14:12:26.766Z,17.29
2023-03-22T14:14:54.196Z,17.36
2023-03-22T14:17:20.649Z,17.59
2023-03-22T14:19:47.192Z,17.68
